createdAt,value
2018-12-18T00:00:26.180Z,93677.34
2018-12-18T00:02:54.026Z,93686.20
2018-12-18T00:05:27.439Z,93690.87
2018-12-18T00:07:55.454Z,93688.86
2018-12-18T00:10:25.449Z,93689.71
2018-12-18T00:12:53.367Z,93689.31
2018-12-18T00:15:21.865Z,93688.05
2018-12-18T00:17:49.904Z,93689.71
2018-12-18T00:20:17.855Z,93691.48
2018-12-18T00:22:45.681Z,93697.02
2018-12-18T00:25:13.701Z,93697.02
2018-12-18T00:27:41.758Z,93702.43
2018-12-18T00:30:10.103Z,93706.23
2018-12-18T00:32:37.981Z,93710.88
2018-12-18T00:35:05.822Z,93715.89
2018-12-18T00:37:33.659Z,93715.06
2018-12-18T00:40:01.551Z,93718.94
2018-12-18T00:42:29.381Z,93714.23
2018-12-18T00:44:57.169Z,93718.07
2018-12-18T00:47:25.197Z,93716.80
2018-12-18T00:49:53.080Z,93723.16
2018-12-18T00:52:20.991Z,93727.91
2018-12-18T00:54:48.887Z,93725.76
2018-12-18T00:57:16.734Z,93721.89
2018-12-18T00:59:44.592Z,93720.70
2018-12-18T01:02:12.619Z,93713.85
2018-12-18T01:04:40.749Z,93710.41
2018-12-18T01:07:08.794Z,93716.78
2018-12-18T01:09:36.732Z,93712.52
2018-12-18T01:12:04.582Z,93715.06
2018-12-18T01:14:32.416Z,93715.88
2018-12-18T01:17:00.246Z,93716.80
2018-12-18T01:19:28.349Z,93712.89
2018-12-18T01:21:56.796Z,93707.00
2018-12-18T01:24:24.745Z,93715.43
2018-12-18T01:26:52.671Z,93721.80
2018-12-18T01:29:20.565Z,93716.23
2018-12-18T01:31:48.461Z,93717.92
2018-12-18T01:34:16.540Z,93718.43
2018-12-18T01:36:44.379Z,93718.83
2018-12-18T01:39:12.290Z,93718.88
2018-12-18T01:41:40.118Z,93717.15
2018-12-18T01:44:07.949Z,93719.24
2018-12-18T01:46:35.735Z,93715.01
2018-12-18T01:49:03.681Z,93716.34
2018-12-18T01:51:31.863Z,93721.86
2018-12-18T01:53:59.879Z,93734.46
2018-12-18T01:56:27.808Z,93723.07
2018-12-18T01:58:55.753Z,93722.63
2018-12-18T02:01:23.678Z,93719.69
2018-12-18T02:03:51.565Z,93712.06
2018-12-18T02:06:19.423Z,93713.73
2018-12-18T02:08:47.312Z,93708.64
2018-12-18T02:11:15.151Z,93710.80
2018-12-18T02:13:43.191Z,93706.91
2018-12-18T02:16:11.045Z,93714.97
2018-12-18T02:18:38.952Z,93717.53
2018-12-18T02:21:06.806Z,93713.78
2018-12-18T02:23:34.721Z,93708.64
2018-12-18T02:26:02.652Z,93711.60
2018-12-18T02:28:30.500Z,93713.25
2018-12-18T02:30:58.458Z,93707.35
2018-12-18T02:33:26.394Z,93714.53
2018-12-18T02:35:54.231Z,93692.98
2018-12-18T02:38:22.170Z,93717.39
2018-12-18T02:40:49.970Z,93716.17
2018-12-18T02:43:17.882Z,93711.47
2018-12-18T02:45:45.748Z,93706.09
2018-12-18T02:48:13.655Z,93699.27
2018-12-18T02:50:41.769Z,93709.83
2018-12-18T02:53:09.863Z,93699.73
2018-12-18T02:55:37.823Z,93703.98
2018-12-18T02:58:05.676Z,93709.08
2018-12-18T03:00:33.677Z,93716.32
2018-12-18T03:03:01.586Z,93716.73
2018-12-18T03:05:29.761Z,93712.89
2018-12-18T03:07:57.646Z,93720.43
2018-12-18T03:10:25.770Z,93726.78
2018-12-18T03:12:53.708Z,93723.05
2018-12-18T03:15:21.937Z,93721.42
2018-12-18T03:17:50.169Z,93728.53
2018-12-18T03:20:18.197Z,93734.90
2018-12-18T03:22:46.261Z,93734.52
2018-12-18T03:25:14.538Z,93734.89
2018-12-18T03:27:42.548Z,93737.00
2018-12-18T03:30:10.406Z,93741.19
2018-12-18T03:32:46.885Z,93744.63
2018-12-18T03:35:14.688Z,93743.78
2018-12-18T03:37:42.517Z,93753.14
2018-12-18T03:40:10.383Z,93754.42
2018-12-18T03:42:38.302Z,93750.15
2018-12-18T03:45:06.996Z,93755.61
2018-12-18T03:47:35.001Z,93758.62
2018-12-18T03:50:03.036Z,93761.14
2018-12-18T03:52:31.108Z,93762.44
2018-12-18T03:54:58.939Z,93764.52
2018-12-18T03:57:26.797Z,93760.70
2018-12-18T03:59:54.674Z,93770.89
2018-12-18T04:02:22.534Z,93767.54
2018-12-18T04:04:50.548Z,93770.52
2018-12-18T04:07:18.636Z,93775.62
2018-12-18T04:09:46.497Z,93777.27
2018-12-18T04:12:23.725Z,93779.81
2018-12-18T04:14:51.908Z,93781.97
2018-12-18T04:17:19.723Z,93785.40
2018-12-18T04:19:47.620Z,93797.69
2018-12-18T04:22:15.474Z,93799.39
2018-12-18T04:24:43.341Z,93797.70
2018-12-18T04:27:11.333Z,93806.59
2018-12-18T04:29:39.276Z,93801.48
2018-12-18T04:32:07.336Z,93798.89
2018-12-18T04:34:42.569Z,93803.27
2018-12-18T04:37:05.120Z,93805.33
2018-12-18T04:39:33.044Z,93809.14
2018-12-18T04:42:00.930Z,93813.40
2018-12-18T04:44:28.847Z,93811.34
2018-12-18T04:46:56.714Z,93819.42
2018-12-18T04:49:24.614Z,93816.83
2018-12-18T04:51:52.563Z,93824.02
2018-12-18T04:54:20.537Z,93824.91
2018-12-18T04:56:48.521Z,93821.03
2018-12-18T04:59:16.477Z,93823.20
2018-12-18T05:01:44.305Z,93826.22
2018-12-18T05:04:12.318Z,93834.64
2018-12-18T05:06:40.290Z,93832.16
2018-12-18T05:09:09.472Z,93829.16
2018-12-18T05:11:37.652Z,93828.72
2018-12-18T05:14:05.857Z,93833.38
2018-12-18T05:16:34.033Z,93835.53
2018-12-18T05:19:02.178Z,93838.11
2018-12-18T05:21:30.195Z,93841.89
2018-12-18T05:23:58.072Z,93842.33
2018-12-18T05:26:25.952Z,93846.57
2018-12-18T05:28:54.016Z,93847.86
2018-12-18T05:31:21.910Z,93847.47
2018-12-18T05:33:49.753Z,93854.27
2018-12-18T05:36:17.802Z,93855.53
2018-12-18T05:38:45.804Z,93853.83
2018-12-18T05:41:13.855Z,93853.81
2018-12-18T05:43:41.733Z,93846.23
2018-12-18T05:46:09.813Z,93853.38
2018-12-18T05:48:37.917Z,93845.41
2018-12-18T05:51:06.147Z,93846.63
2018-12-18T05:53:34.387Z,93851.67
2018-12-18T05:56:02.470Z,93847.92
2018-12-18T05:58:30.572Z,93852.12
2018-12-18T06:00:58.642Z,93854.21
2018-12-18T06:03:26.762Z,93852.88
2018-12-18T06:05:54.797Z,93854.59
2018-12-18T06:08:22.890Z,93857.58
2018-12-18T06:10:51.177Z,93863.95
2018-12-18T06:13:19.449Z,93862.62
2018-12-18T06:15:47.612Z,93866.44
2018-12-18T06:18:15.693Z,93867.25
2018-12-18T06:20:43.869Z,93872.78
2018-12-18T06:23:12.071Z,93867.65
2018-12-18T06:25:40.208Z,93877.38
2018-12-18T06:28:08.419Z,93875.22
2018-12-18T06:30:36.644Z,93878.16
2018-12-18T06:33:04.873Z,93882.80
2018-12-18T06:35:33.151Z,93878.09
2018-12-18T06:38:01.419Z,93881.07
2018-12-18T06:40:29.671Z,93877.63
2018-12-18T06:42:58.146Z,93882.30
2018-12-18T06:45:26.572Z,93877.20
2018-12-18T06:47:54.737Z,93880.13
2018-12-18T06:50:22.990Z,93888.64
2018-12-18T06:52:51.271Z,93897.95
2018-12-18T06:55:19.657Z,93904.37
2018-12-18T06:57:47.836Z,93901.38
2018-12-18T07:00:16.078Z,93908.12
2018-12-18T07:02:44.379Z,93908.52
2018-12-18T07:05:16.683Z,93914.05
2018-12-18T07:07:43.131Z,93920.52
2018-12-18T07:10:11.637Z,93913.61
2018-12-18T07:12:40.013Z,93916.13
2018-12-18T07:15:08.391Z,93917.41
2018-12-18T07:17:36.620Z,93920.29
2018-12-18T07:20:05.644Z,93923.26
2018-12-18T07:22:33.850Z,93923.59
2018-12-18T07:25:02.104Z,93923.58
2018-12-18T07:27:30.298Z,93922.70
2018-12-18T07:29:58.502Z,93923.50
2018-12-18T07:32:26.841Z,93928.99
2018-12-18T07:34:55.047Z,93930.19
2018-12-18T07:37:23.355Z,93929.72
2018-12-18T07:39:51.625Z,93932.74
2018-12-18T07:42:19.900Z,93940.91
2018-12-18T07:44:48.433Z,93932.20
2018-12-18T07:47:16.711Z,93940.37
2018-12-18T07:49:44.922Z,93934.77
2018-12-18T07:52:13.155Z,93943.16
2018-12-18T07:54:41.425Z,93947.41
2018-12-18T07:57:09.764Z,93951.16
2018-12-18T07:59:38.063Z,93948.08
2018-12-18T08:02:06.334Z,93945.23
2018-12-18T08:04:34.642Z,93951.09
2018-12-18T08:07:02.719Z,93951.37
2018-12-18T08:09:30.980Z,93958.02
2018-12-18T08:11:59.237Z,93957.72
2018-12-18T08:14:27.442Z,93967.86
2018-12-18T08:16:55.648Z,93965.02
2018-12-18T08:19:23.906Z,93970.00
2018-12-18T08:21:52.095Z,93966.74
2018-12-18T08:24:20.299Z,93963.95
2018-12-18T08:26:49.449Z,93973.52
2018-12-18T08:29:17.876Z,93973.09
2018-12-18T08:31:46.300Z,93968.03
2018-12-18T08:34:14.607Z,93971.00
2018-12-18T08:36:43.011Z,93978.11
2018-12-18T08:39:11.199Z,93982.56
2018-12-18T08:41:39.414Z,93982.69
2018-12-18T08:44:07.643Z,93983.34
2018-12-18T08:46:35.926Z,93978.03
2018-12-18T08:49:04.181Z,93981.48
2018-12-18T08:51:32.359Z,93983.97
2018-12-18T08:54:00.585Z,93981.19
2018-12-18T08:56:28.816Z,93985.04
2018-12-18T08:58:57.046Z,93986.66
2018-12-18T09:01:25.155Z,93984.20
2018-12-18T09:03:53.372Z,93984.78
2018-12-18T09:06:21.581Z,93984.88
2018-12-18T09:08:49.779Z,93985.77
2018-12-18T09:11:18.021Z,93986.33
2018-12-18T09:13:46.185Z,93986.57
2018-12-18T09:16:19.825Z,93982.13
2018-12-18T09:18:47.997Z,93981.80
2018-12-18T09:21:16.121Z,93980.21
2018-12-18T09:23:44.752Z,93977.15
2018-12-18T09:26:12.831Z,93981.82
2018-12-18T09:28:40.999Z,93983.65
2018-12-18T09:31:09.252Z,93977.61
2018-12-18T09:33:37.531Z,93974.06
2018-12-18T09:36:05.958Z,93969.66
2018-12-18T09:38:39.721Z,93975.05
2018-12-18T09:41:13.452Z,93969.98
2018-12-18T09:43:46.782Z,93966.27
2018-12-18T09:46:14.690Z,93964.64
2018-12-18T09:48:42.536Z,93964.86
2018-12-18T09:51:11.342Z,93964.91
2018-12-18T09:53:39.456Z,93966.09
2018-12-18T09:56:07.427Z,93968.23
2018-12-18T09:58:35.610Z,93964.91
2018-12-18T10:01:03.782Z,93967.03
2018-12-18T10:03:33.678Z,93960.69
2018-12-18T10:06:02.256Z,93964.04
2018-12-18T10:08:30.687Z,93955.22
2018-12-18T10:10:59.853Z,93954.30
2018-12-18T10:13:28.235Z,93956.53
2018-12-18T10:15:56.208Z,93956.03
2018-12-18T10:18:24.092Z,93950.91
2018-12-18T10:20:52.212Z,93950.69
2018-12-18T10:23:20.418Z,93947.92
2018-12-18T10:25:48.387Z,93946.73
2018-12-18T10:28:16.365Z,93939.78
2018-12-18T10:30:44.348Z,93944.31
2018-12-18T10:33:12.235Z,93942.41
2018-12-18T10:35:40.544Z,93941.02
2018-12-18T10:38:08.543Z,93947.89
2018-12-18T10:40:36.568Z,93944.08
2018-12-18T10:43:04.559Z,93941.37
2018-12-18T10:45:33.743Z,93944.04
2018-12-18T10:48:01.697Z,93937.15
2018-12-18T10:50:29.706Z,93932.78
2018-12-18T10:52:57.646Z,93932.95
2018-12-18T10:55:25.544Z,93929.64
2018-12-18T10:57:53.525Z,93925.23
2018-12-18T11:00:26.837Z,93929.94
2018-12-18T11:02:54.771Z,93919.83
2018-12-18T11:05:22.666Z,93926.44
2018-12-18T11:07:50.697Z,93926.28
2018-12-18T11:10:18.639Z,93917.45
2018-12-18T11:12:52.008Z,93917.98
2018-12-18T11:15:19.961Z,93914.87
2018-12-18T11:17:47.849Z,93917.10
2018-12-18T11:20:15.713Z,93917.52
2018-12-18T11:22:43.627Z,93915.77
2018-12-18T11:25:11.546Z,93913.40
2018-12-18T11:27:39.519Z,93912.12
2018-12-18T11:30:08.071Z,93911.41
2018-12-18T11:32:36.003Z,93911.52
2018-12-18T11:35:04.177Z,93910.34
2018-12-18T11:37:32.232Z,93913.83
2018-12-18T11:40:00.199Z,93907.77
2018-12-18T11:42:28.240Z,93908.03
2018-12-18T11:44:56.242Z,93910.00
2018-12-18T11:47:24.499Z,93910.58
2018-12-18T11:49:52.590Z,93906.78
2018-12-18T11:52:20.913Z,93904.59
2018-12-18T11:54:49.001Z,93909.27
2018-12-18T11:57:17.035Z,93912.48
2018-12-18T11:59:45.311Z,93913.21
2018-12-18T12:02:13.374Z,93910.41
2018-12-18T12:04:41.225Z,93903.08
2018-12-18T12:07:09.281Z,93906.29
2018-12-18T12:09:37.211Z,93902.36
2018-12-18T12:12:05.247Z,93905.95
2018-12-18T12:14:33.383Z,93897.02
2018-12-18T12:17:01.663Z,93902.50
2018-12-18T12:19:30.078Z,93904.47
2018-12-18T12:21:58.154Z,93898.23
2018-12-18T12:24:26.114Z,93894.13
2018-12-18T12:26:58.750Z,93898.08
2018-12-18T12:29:27.093Z,93899.61
2018-12-18T12:31:55.497Z,93900.89
2018-12-18T12:34:23.713Z,93900.02
2018-12-18T12:36:51.766Z,93896.31
2018-12-18T12:39:20.466Z,93901.58
2018-12-18T12:41:48.782Z,93898.80
2018-12-18T12:44:17.176Z,93908.70
2018-12-18T12:46:45.817Z,93900.97
2018-12-18T12:49:14.342Z,93907.23
2018-12-18T12:51:42.418Z,93906.23
2018-12-18T12:54:10.435Z,93905.50
2018-12-18T12:56:38.557Z,93909.89
2018-12-18T12:59:06.978Z,93905.94
2018-12-18T13:01:35.066Z,93907.59
2018-12-18T13:04:03.262Z,93899.78
2018-12-18T13:06:36.408Z,93896.64
2018-12-18T13:09:01.587Z,93898.63
2018-12-18T13:11:29.592Z,93894.08
2018-12-18T13:13:57.613Z,93891.02
2018-12-18T13:16:25.612Z,93893.24
2018-12-18T13:18:53.581Z,93899.02
2018-12-18T13:21:21.695Z,93901.52
2018-12-18T13:23:49.769Z,93900.38
2018-12-18T13:26:17.856Z,93900.01
2018-12-18T13:28:45.929Z,93905.67
2018-12-18T13:31:14.125Z,93899.14
2018-12-18T13:33:42.057Z,93905.81
2018-12-18T13:36:09.964Z,93912.61
2018-12-18T13:38:37.965Z,93907.95
2018-12-18T13:41:05.913Z,93914.47
2018-12-18T13:43:33.905Z,93910.63
2018-12-18T13:46:01.965Z,93906.93
2018-12-18T13:48:29.919Z,93909.92
2018-12-18T13:50:59.030Z,93907.95
2018-12-18T13:53:27.376Z,93916.63
2018-12-18T13:55:55.403Z,93921.91
2018-12-18T13:58:23.409Z,93927.94
2018-12-18T14:00:51.380Z,93922.02
2018-12-18T14:03:19.425Z,93925.51
2018-12-18T14:05:47.540Z,93926.50
2018-12-18T14:08:15.839Z,93929.95
2018-12-18T14:10:44.013Z,93932.58
2018-12-18T14:13:12.058Z,93927.98
2018-12-18T14:15:40.121Z,93940.38
2018-12-18T14:18:08.291Z,93928.02
2018-12-18T14:20:36.231Z,93936.76
2018-12-18T14:23:04.363Z,93932.52
2018-12-18T14:25:32.438Z,93930.83
2018-12-18T14:28:00.498Z,93930.79
2018-12-18T14:30:28.514Z,93935.09
2018-12-18T14:32:56.435Z,93937.66
2018-12-18T14:35:24.381Z,93937.27
2018-12-18T14:37:52.503Z,93939.50
2018-12-18T14:40:20.417Z,93938.18
2018-12-18T14:42:48.369Z,93940.78
2018-12-18T14:45:16.238Z,93942.11
2018-12-18T14:47:44.172Z,93945.53
2018-12-18T14:50:12.484Z,93950.58
2018-12-18T14:52:40.400Z,93953.56
2018-12-18T14:55:08.971Z,93951.91
2018-12-18T14:57:37.375Z,93948.14
2018-12-18T15:00:06.259Z,93949.06
2018-12-18T15:02:34.252Z,93950.30
2018-12-18T15:05:02.453Z,93948.63
2018-12-18T15:07:30.423Z,93953.71
2018-12-18T15:09:58.476Z,93951.62
2018-12-18T15:12:26.843Z,93953.77
2018-12-18T15:14:55.237Z,93956.74
2018-12-18T15:17:23.260Z,93954.20
2018-12-18T15:19:51.358Z,93957.63
2018-12-18T15:22:20.435Z,93957.63
2018-12-18T15:24:48.415Z,93957.63
2018-12-18T15:27:16.473Z,93958.50
2018-12-18T15:29:44.492Z,93957.23
2018-12-18T15:32:12.521Z,93953.86
2018-12-18T15:34:41.152Z,93955.20
2018-12-18T15:37:09.818Z,93955.60
2018-12-18T15:39:38.345Z,93959.85
2018-12-18T15:42:06.356Z,93960.28
2018-12-18T15:44:34.396Z,93962.39
2018-12-18T15:47:02.388Z,93960.28
2018-12-18T15:49:30.458Z,93961.56
2018-12-18T15:51:58.480Z,93957.78
2018-12-18T15:54:26.543Z,93966.67
2018-12-18T15:56:54.608Z,93964.53
2018-12-18T15:59:22.593Z,93969.22
2018-12-18T16:01:50.633Z,93963.33
2018-12-18T16:04:18.776Z,93967.55
2018-12-18T16:06:46.892Z,93970.09
2018-12-18T16:09:15.034Z,93973.47
2018-12-18T16:11:43.262Z,93969.69
2018-12-18T16:14:11.514Z,93971.82
2018-12-18T16:16:39.833Z,93977.73
2018-12-18T16:19:07.905Z,93972.63
2018-12-18T16:21:36.576Z,93974.77
2018-12-18T16:24:04.747Z,93976.06
2018-12-18T16:26:32.846Z,93977.73
2018-12-18T16:29:01.050Z,93980.73
2018-12-18T16:31:29.092Z,93987.52
2018-12-18T16:33:57.243Z,93993.88
2018-12-18T16:36:25.197Z,93991.72
2018-12-18T16:38:53.466Z,93988.77
2018-12-18T16:41:21.437Z,94000.19
2018-12-18T16:43:49.424Z,93998.94
2018-12-18T16:46:17.471Z,93999.38
2018-12-18T16:48:45.747Z,94000.23
2018-12-18T16:51:13.743Z,94006.59
2018-12-18T16:53:41.989Z,94006.99
2018-12-18T16:56:10.151Z,94002.77
2018-12-18T16:58:38.138Z,94012.92
2018-12-18T17:01:06.233Z,94013.77
2018-12-18T17:03:34.422Z,94018.42
2018-12-18T17:06:02.349Z,94020.99
2018-12-18T17:08:32.145Z,94021.81
2018-12-18T17:11:00.326Z,94028.61
2018-12-18T17:13:28.340Z,94027.30
2018-12-18T17:15:56.248Z,94026.90
2018-12-18T17:18:24.345Z,94034.55
2018-12-18T17:20:52.311Z,94032.00
2018-12-18T17:23:20.389Z,94032.41
2018-12-18T17:25:48.359Z,94035.80
2018-12-18T17:28:16.509Z,94038.78
2018-12-18T17:30:44.424Z,94046.41
2018-12-18T17:33:12.544Z,94044.29
2018-12-18T17:35:42.244Z,94041.34
2018-12-18T17:38:10.442Z,94039.20
2018-12-18T17:40:39.007Z,94040.48
2018-12-18T17:43:07.152Z,94045.56
2018-12-18T17:45:35.432Z,94046.83
2018-12-18T17:48:03.513Z,94047.69
2018-12-18T17:50:31.538Z,94054.44
2018-12-18T17:52:59.816Z,94050.23
2018-12-18T17:55:27.863Z,94054.05
2018-12-18T17:57:56.818Z,94059.14
2018-12-18T18:00:24.968Z,94057.88
2018-12-18T18:02:53.102Z,94058.69
2018-12-18T18:05:21.474Z,94060.40
2018-12-18T18:07:49.637Z,94068.02
2018-12-18T18:10:17.819Z,94068.86
2018-12-18T18:12:46.366Z,94076.06
2018-12-18T18:15:14.295Z,94070.12
2018-12-18T18:17:42.754Z,94076.05
2018-12-18T18:20:11.263Z,94075.23
2018-12-18T18:22:39.505Z,94080.72
2018-12-18T18:25:07.735Z,94075.63
2018-12-18T18:27:35.957Z,94078.17
2018-12-18T18:30:04.840Z,94083.28
2018-12-18T18:32:33.033Z,94080.30
2018-12-18T18:35:01.004Z,94083.27
2018-12-18T18:37:29.112Z,94078.61
2018-12-18T18:39:57.038Z,94078.18
2018-12-18T18:42:25.096Z,94076.91
2018-12-18T18:44:53.182Z,94083.27
2018-12-18T18:47:21.181Z,94084.95
2018-12-18T18:49:49.095Z,94079.46
2018-12-18T18:52:17.180Z,94084.95
2018-12-18T18:54:45.168Z,94080.72
2018-12-18T18:57:13.204Z,94086.23
2018-12-18T18:59:41.135Z,94086.66
2018-12-18T19:02:09.357Z,94093.02
2018-12-18T19:04:37.377Z,94087.48
2018-12-18T19:07:05.367Z,94088.34
2018-12-18T19:09:33.265Z,94083.67
2018-12-18T19:12:01.344Z,94085.80
2018-12-18T19:14:29.507Z,94085.81
2018-12-18T19:16:57.491Z,94085.82
2018-12-18T19:19:25.612Z,94091.31
2018-12-18T19:21:53.633Z,94091.73
2018-12-18T19:24:21.708Z,94090.88
2018-12-18T19:26:50.186Z,94093.86
2018-12-18T19:29:18.418Z,94094.68
2018-12-18T19:31:46.471Z,94098.94
2018-12-18T19:34:14.574Z,94102.31
2018-12-18T19:36:42.830Z,94103.59
2018-12-18T19:39:10.842Z,94104.85
2018-12-18T19:41:39.049Z,94107.41
2018-12-18T19:44:07.476Z,94094.70
2018-12-18T19:46:35.738Z,94098.52
2018-12-18T19:49:03.891Z,94101.05
2018-12-18T19:51:32.249Z,94105.27
2018-12-18T19:54:00.423Z,94107.39
2018-12-18T19:56:28.858Z,94111.63
2018-12-18T19:58:57.255Z,94107.83
2018-12-18T20:01:25.540Z,94110.78
2018-12-18T20:03:53.738Z,94109.52
2018-12-18T20:06:21.749Z,94110.80
2018-12-18T20:08:49.839Z,94106.54
2018-12-18T20:11:17.972Z,94107.84
2018-12-18T20:13:46.090Z,94106.54
2018-12-18T20:16:14.304Z,94109.11
2018-12-18T20:18:42.344Z,94114.17
2018-12-18T20:21:10.411Z,94112.49
2018-12-18T20:23:38.530Z,94109.09
2018-12-18T20:26:08.535Z,94112.05
2018-12-18T20:28:36.580Z,94107.39
2018-12-18T20:31:04.767Z,94106.56
2018-12-18T20:33:32.777Z,94109.09
2018-12-18T20:36:00.797Z,94106.56
2018-12-18T20:38:28.820Z,94105.28
2018-12-18T20:40:56.899Z,94101.91
2018-12-18T20:43:24.905Z,94103.16
2018-12-18T20:45:53.000Z,94102.33
2018-12-18T20:48:21.140Z,94105.27
2018-12-18T20:50:49.191Z,94104.86
2018-12-18T20:53:17.582Z,94104.45
2018-12-18T20:55:45.868Z,94096.40
2018-12-18T20:58:14.063Z,94098.92
2018-12-18T21:00:42.110Z,94098.09
2018-12-18T21:03:09.962Z,94100.20
2018-12-18T21:05:37.875Z,94101.90
2018-12-18T21:08:05.923Z,94099.79
2018-12-18T21:10:33.908Z,94105.29
2018-12-18T21:13:07.509Z,94097.66
2018-12-18T21:15:35.614Z,94095.95
2018-12-18T21:18:03.688Z,94103.59
2018-12-18T21:20:31.772Z,94101.03
2018-12-18T21:22:59.739Z,94099.34
2018-12-18T21:25:27.711Z,94105.28
2018-12-18T21:27:55.727Z,94094.70
2018-12-18T21:30:23.746Z,94092.59
2018-12-18T21:32:51.764Z,94094.27
2018-12-18T21:35:19.884Z,94096.39
2018-12-18T21:37:48.028Z,94092.16
2018-12-18T21:40:16.099Z,94086.64
2018-12-18T21:42:44.144Z,94088.33
2018-12-18T21:45:12.161Z,94088.77
2018-12-18T21:47:40.137Z,94078.59
2018-12-18T21:50:08.249Z,94085.38
2018-12-18T21:52:36.343Z,94077.34
2018-12-18T21:55:04.348Z,94080.30
2018-12-18T21:57:32.290Z,94079.44
2018-12-18T22:00:00.344Z,94079.01
2018-12-18T22:02:28.347Z,94074.78
2018-12-18T22:04:56.318Z,94081.14
2018-12-18T22:07:24.302Z,94078.19
2018-12-18T22:09:52.346Z,94077.34
2018-12-18T22:12:20.489Z,94079.44
2018-12-18T22:14:48.515Z,94085.36
2018-12-18T22:17:16.549Z,94084.52
2018-12-18T22:19:44.529Z,94082.83
2018-12-18T22:22:12.477Z,94082.41
2018-12-18T22:24:40.512Z,94086.63
2018-12-18T22:27:08.602Z,94085.35
2018-12-18T22:29:36.662Z,94081.55
2018-12-18T22:32:04.919Z,94082.41
2018-12-18T22:34:32.893Z,94084.52
2018-12-18T22:37:00.912Z,94078.58
2018-12-18T22:39:28.886Z,94081.13
2018-12-18T22:41:56.884Z,94076.45
2018-12-18T22:44:24.854Z,94079.00
2018-12-18T22:46:52.842Z,94082.80
2018-12-18T22:49:20.785Z,94077.73
2018-12-18T22:51:48.751Z,94076.88
2018-12-18T22:54:16.641Z,94072.65
2018-12-18T22:56:44.667Z,94066.72
2018-12-18T22:59:12.726Z,94067.56
2018-12-18T23:01:45.067Z,94059.10
2018-12-18T23:04:14.596Z,94057.00
2018-12-18T23:06:42.607Z,94055.30
2018-12-18T23:09:14.154Z,94052.73
2018-12-18T23:11:42.185Z,94052.34
2018-12-18T23:14:10.179Z,94051.48
2018-12-18T23:16:38.179Z,94044.71
2018-12-18T23:19:06.304Z,94041.31
2018-12-18T23:21:34.288Z,94038.78
2018-12-18T23:24:02.252Z,94040.91
2018-12-18T23:26:31.868Z,94030.76
2018-12-18T23:29:03.211Z,94039.63
2018-12-18T23:31:31.525Z,94039.63
2018-12-18T23:33:59.502Z,94039.19
2018-12-18T23:36:28.115Z,94030.33
2018-12-18T23:38:57.020Z,94033.72
2018-12-18T23:41:25.298Z,94033.30
2018-12-18T23:43:53.426Z,94034.98
2018-12-18T23:46:21.336Z,94034.97
2018-12-18T23:48:49.263Z,94032.42
2018-12-18T23:51:17.375Z,94038.36
2018-12-18T23:53:45.334Z,94035.41
2018-12-18T23:56:13.341Z,94040.89
2018-12-18T23:58:41.307Z,94035.83
